Time;durP1;ratioP1;P1;durP2;ratioP2;P2;SDS_P1;SDS_P2;PMS_P1;PMS_P2;Temp;Humidity;BMP_temperature;BMP_pressure;BME280_temperature;BME280_humidity;BME280_pressure;Samples;Min_cycle;Max_cycle;Signal;HPM_P1;HPM_P2
2022/09/11 00:01:05;;;;;;;1.98;0.55;;;20.90;65.80;;;;;;5075489;28;20382;-77
2022/09/11 00:03:30;;;;;;;6.30;0.60;;;20.80;65.70;;;;;;5093081;28;20020;-81
2022/09/11 00:06:03;;;;;;;1.00;0.43;;;20.80;65.10;;;;;;5093191;28;20489;-82
2022/09/11 00:08:30;;;;;;;2.47;0.50;;;20.80;65.20;;;;;;5093350;28;20103;-81
2022/09/11 00:11:06;;;;;;;1.08;0.60;;;20.80;65.30;;;;;;5093135;28;20028;-76
2022/09/11 00:13:33;;;;;;;1.30;0.57;;;20.80;65.20;;;;;;5093386;28;20024;-80
2022/09/11 00:15:59;;;;;;;1.13;0.50;;;20.80;65.00;;;;;;5093239;28;20035;-76
2022/09/11 00:18:28;;;;;;;1.88;0.40;;;20.80;65.10;;;;;;5093244;28;20359;-81
2022/09/11 00:20:56;;;;;;;0.85;0.40;;;20.80;64.50;;;;;;5093124;28;20125;-81
2022/09/11 00:23:23;;;;;;;0.40;0.40;;;20.70;64.70;;;;;;5093248;28;20027;-76
2022/09/11 00:25:49;;;;;;;1.10;0.43;;;20.70;64.50;;;;;;5092979;28;20486;-76
2022/09/11 00:28:21;;;;;;;4.55;0.80;;;20.70;64.00;;;;;;5093223;28;20012;-77
2022/09/11 00:30:55;;;;;;;2.45;0.40;;;20.70;64.20;;;;;;5093015;28;20099;-76
2022/09/11 00:33:21;;;;;;;2.35;0.73;;;20.70;64.50;;;;;;5092992;28;20035;-76
2022/09/11 00:35:57;;;;;;;0.90;0.40;;;20.70;64.60;;;;;;5093095;28;20020;-76
2022/09/11 00:38:24;;;;;;;4.70;0.63;;;20.70;64.60;;;;;;5092975;28;20051;-77
2022/09/11 00:40:50;;;;;;;3.85;0.60;;;20.70;64.90;;;;;;5092856;28;20455;-80
2022/09/11 00:43:16;;;;;;;2.85;0.70;;;20.70;65.10;;;;;;5093032;28;20095;-76
2022/09/11 00:45:48;;;;;;;1.75;0.60;;;20.70;65.10;;;;;;5093093;28;20393;-77
2022/09/11 00:48:19;;;;;;;;;;;20.70;64.90;;;;;;5093624;28;20058;-77
2022/09/11 00:50:45;;;;;;;1.13;0.50;;;20.60;64.90;;;;;;5092897;28;20369;-80
2022/09/11 00:53:16;;;;;;;2.63;0.50;;;20.60;65.00;;;;;;5092868;28;20029;-78
2022/09/11 00:55:50;;;;;;;2.83;0.57;;;20.60;64.80;;;;;;5093288;28;20412;-81
2022/09/11 00:58:20;;;;;;;4.80;0.60;;;20.60;65.10;;;;;;5091230;28;20024;-78
2022/09/11 01:00:46;;;;;;;0.85;0.40;;;20.60;65.30;;;;;;5090174;28;20040;-76
2022/09/11 01:03:13;;;;;;;2.30;0.50;;;20.60;65.70;;;;;;5090105;28;20040;-76
2022/09/11 01:05:42;;;;;;;0.95;0.55;;;20.60;65.80;;;;;;5091934;28;20024;-76
2022/09/11 01:08:09;;;;;;;1.65;0.50;;;20.60;65.90;;;;;;5092681;28;20587;-77
2022/09/11 01:11:12;;;;;;;2.30;0.50;;;20.60;66.10;;;;;;5092645;28;20024;-81
2022/09/11 01:13:37;;;;;;;5.22;0.70;;;20.60;65.60;;;;;;5062162;28;20029;-76
2022/09/11 01:16:16;;;;;;;1.05;0.40;;;20.60;65.40;;;;;;5092325;28;20028;-75
2022/09/11 01:18:48;;;;;;;2.78;0.40;;;20.50;65.30;;;;;;5092451;28;20473;-76
2022/09/11 01:21:51;;;;;;;1.58;0.40;;;20.50;64.70;;;;;;5092290;28;20043;-77
2022/09/11 01:24:55;;;;;;;0.52;0.35;;;20.50;64.50;;;;;;5092525;28;20384;-76
2022/09/11 01:27:49;;;;;;;1.35;0.40;;;20.50;64.70;;;;;;5074252;28;20107;-79
2022/09/11 01:30:31;;;;;;;0.75;0.30;;;20.50;65.00;;;;;;5073957;28;20482;-76
2022/09/11 01:33:12;;;;;;;4.35;0.40;;;20.50;64.70;;;;;;5092486;28;20161;-76
2022/09/11 01:35:57;;;;;;;1.90;0.50;;;20.50;64.40;;;;;;5092202;28;20028;-80
2022/09/11 01:38:47;;;;;;;5.75;0.70;;;20.50;64.60;;;;;;5092104;28;20082;-77
2022/09/11 01:41:26;;;;;;;2.10;0.50;;;20.50;64.50;;;;;;5092460;28;20374;-76
2022/09/11 01:44:07;;;;;;;1.73;0.60;;;20.50;64.80;;;;;;5092137;28;20039;-79
2022/09/11 01:46:41;;;;;;;2.80;0.50;;;20.50;64.80;;;;;;5092575;28;20035;-76
2022/09/11 01:49:24;;;;;;;2.00;0.45;;;20.50;64.80;;;;;;5096079;28;20050;-76
2022/09/11 01:51:54;;;;;;;1.75;0.50;;;20.40;65.20;;;;;;5096120;28;20054;-75
2022/09/11 01:54:25;;;;;;;4.13;0.68;;;20.40;66.00;;;;;;5096079;28;20024;-80
2022/09/11 01:57:09;;;;;;;2.67;0.70;;;20.50;66.50;;;;;;5095993;28;20489;-77
2022/09/11 01:59:58;;;;;;;2.38;0.60;;;20.40;66.40;;;;;;5095714;28;20077;-76
2022/09/11 02:02:37;;;;;;;1.23;0.57;;;20.50;66.60;;;;;;5095765;28;20018;-80
2022/09/11 02:05:17;;;;;;;1.05;0.60;;;20.40;66.10;;;;;;5095676;28;20032;-79
2022/09/11 02:08:08;;;;;;;1.83;0.47;;;20.40;65.90;;;;;;5095802;28;20085;-79
2022/09/11 02:10:41;;;;;;;0.80;0.50;;;20.40;66.10;;;;;;5095802;28;20089;-76
2022/09/11 02:13:22;;;;;;;1.70;0.40;;;20.40;66.00;;;;;;5095566;28;20458;-75
2022/09/11 02:15:52;;;;;;;0.40;0.40;;;20.40;66.00;;;;;;5095523;28;20020;-76
2022/09/11 02:18:47;;;;;;;2.63;0.52;;;20.40;65.90;;;;;;5095519;28;20028;-76
2022/09/11 02:21:16;;;;;;;4.50;1.05;;;20.40;65.90;;;;;;5095355;28;20122;-76
2022/09/11 02:23:41;;;;;;;4.05;0.50;;;20.40;66.10;;;;;;5060587;28;20077;-75
2022/09/11 02:26:09;;;;;;;3.03;0.50;;;20.40;66.60;;;;;;5095196;28;20099;-76
2022/09/11 02:28:36;;;;;;;1.92;0.40;;;20.40;66.80;;;;;;5095267;28;20051;-76
2022/09/11 02:31:02;;;;;;;0.55;0.40;;;20.40;66.80;;;;;;5095227;28;20032;-80
2022/09/11 02:33:29;;;;;;;1.60;0.40;;;20.40;66.50;;;;;;5095139;28;20065;-80
2022/09/11 02:36:23;;;;;;;1.98;0.40;;;20.40;66.10;;;;;;5094736;28;20032;-79
2022/09/11 02:39:16;;;;;;;0.70;0.40;;;20.40;65.80;;;;;;5063827;28;20085;-75
2022/09/11 02:42:02;;;;;;;4.97;0.50;;;20.40;65.80;;;;;;5095353;28;20065;-79
2022/09/11 02:44:36;;;;;;;0.93;0.40;;;20.40;65.80;;;;;;5094962;28;20039;-77
2022/09/11 02:47:33;;;;;;;5.10;0.50;;;20.40;66.30;;;;;;5094868;28;20031;-76
2022/09/11 02:50:06;;;;;;;1.27;0.52;;;20.40;67.90;;;;;;5094826;28;20048;-75
2022/09/11 02:52:57;;;;;;;1.23;0.60;;;20.40;68.90;;;;;;5095058;28;20028;-79
2022/09/11 02:55:55;;;;;;;4.07;0.50;;;20.40;69.70;;;;;;5085303;28;20370;-79
2022/09/11 02:58:37;;;;;;;3.63;0.40;;;20.30;69.80;;;;;;5094468;28;20047;-78
2022/09/11 03:01:03;;;;;;;3.88;0.70;;;20.30;70.60;;;;;;5094528;28;20067;-77
2022/09/11 03:03:39;;;;;;;0.55;0.40;;;20.20;71.00;;;;;;5094566;28;20027;-76
2022/09/11 03:06:09;;;;;;;2.17;0.70;;;20.20;71.30;;;;;;5094552;28;20051;-76
2022/09/11 03:08:34;;;;;;;0.70;0.47;;;20.10;71.40;;;;;;5094226;28;20482;-79
2022/09/11 03:11:00;;;;;;;4.45;0.70;;;20.10;71.60;;;;;;5094494;28;20028;-76
2022/09/11 03:13:26;;;;;;;2.72;0.40;;;20.10;71.60;;;;;;5094467;28;20098;-77
2022/09/11 03:15:51;;;;;;;1.70;0.50;;;20.10;71.50;;;;;;5094493;28;20020;-76
2022/09/11 03:18:17;;;;;;;2.92;0.45;;;20.10;71.30;;;;;;5094335;28;20063;-80
2022/09/11 03:20:46;;;;;;;1.23;0.55;;;20.10;71.80;;;;;;5094352;28;20062;-78
2022/09/11 03:23:12;;;;;;;2.78;0.52;;;20.10;71.30;;;;;;5094415;28;20024;-79
2022/09/11 03:25:39;;;;;;;2.03;0.70;;;20.10;71.10;;;;;;5094208;28;20070;-76
2022/09/11 03:28:05;;;;;;;1.48;0.52;;;20.00;70.80;;;;;;5094091;28;20434;-75
2022/09/11 03:30:32;;;;;;;0.57;0.40;;;20.00;70.60;;;;;;5093969;28;20031;-76
2022/09/11 03:32:59;;;;;;;6.28;0.50;;;20.00;70.60;;;;;;5093922;28;20470;-79
2022/09/11 03:35:25;;;;;;;1.40;0.40;;;20.00;70.30;;;;;;5093733;28;20024;-79
2022/09/11 03:37:51;;;;;;;3.45;0.52;;;20.00;70.10;;;;;;5093853;28;20039;-79
2022/09/11 03:40:19;;;;;;;5.03;0.85;;;20.00;70.00;;;;;;5093686;28;20462;-79
2022/09/11 03:42:44;;;;;;;1.70;0.45;;;20.00;70.00;;;;;;5094042;28;20050;-77
2022/09/11 03:45:10;;;;;;;1.48;0.50;;;20.00;70.10;;;;;;5094218;28;20474;-79
2022/09/11 03:47:37;;;;;;;1.00;0.50;;;20.00;70.20;;;;;;5094200;28;20029;-76
2022/09/11 03:50:03;;;;;;;6.22;0.70;;;20.00;70.00;;;;;;5093462;28;20113;-76
2022/09/11 03:52:29;;;;;;;2.15;0.80;;;20.00;70.60;;;;;;5093504;28;20020;-80
2022/09/11 03:54:55;;;;;;;3.03;0.60;;;20.00;71.10;;;;;;5093369;28;20050;-76
2022/09/11 03:57:21;;;;;;;2.47;0.50;;;20.00;70.90;;;;;;5093429;28;20020;-78
2022/09/11 03:59:46;;;;;;;0.68;0.52;;;20.00;70.80;;;;;;5093155;28;20038;-76
2022/09/11 04:02:12;;;;;;;1.23;0.50;;;19.90;71.10;;;;;;5093859;28;20112;-79
2022/09/11 04:04:38;;;;;;;1.98;0.32;;;19.90;71.50;;;;;;5093499;28;20098;-79
2022/09/11 04:07:03;;;;;;;4.88;0.40;;;19.90;71.70;;;;;;5093566;28;20032;-79
2022/09/11 04:09:30;;;;;;;1.48;0.40;;;19.90;71.90;;;;;;5093013;28;20024;-76
2022/09/11 04:11:56;;;;;;;3.28;0.45;;;19.90;71.80;;;;;;5093340;28;20103;-76
2022/09/11 04:14:22;;;;;;;3.63;0.57;;;19.90;71.90;;;;;;5093355;28;20023;-79
2022/09/11 04:16:48;;;;;;;4.80;0.60;;;19.80;71.70;;;;;;5093297;28;20112;-79
2022/09/11 04:19:14;;;;;;;3.72;0.63;;;19.80;71.60;;;;;;5093334;28;20424;-76
2022/09/11 04:21:41;;;;;;;3.00;0.50;;;19.80;71.80;;;;;;5093395;28;20065;-80
2022/09/11 04:24:06;;;;;;;2.70;0.60;;;19.80;72.00;;;;;;5093504;28;20019;-81
2022/09/11 04:26:32;;;;;;;1.08;0.50;;;19.80;72.20;;;;;;5093277;28;20032;-77
2022/09/11 04:28:58;;;;;;;2.30;0.50;;;19.80;72.00;;;;;;5093137;28;20133;-80
2022/09/11 04:31:26;;;;;;;3.03;0.40;;;19.70;71.50;;;;;;5092942;28;20470;-79
2022/09/11 04:33:53;;;;;;;5.28;0.70;;;19.70;71.30;;;;;;5093026;28;20021;-80
2022/09/11 04:36:20;;;;;;;3.60;0.47;;;19.70;71.20;;;;;;5093132;28;20036;-78
2022/09/11 04:38:47;;;;;;;3.60;0.50;;;19.70;71.00;;;;;;5093100;28;20031;-76
2022/09/11 04:41:14;;;;;;;5.38;0.57;;;19.70;70.80;;;;;;5093018;28;20043;-76
2022/09/11 04:43:41;;;;;;;1.52;0.43;;;19.70;70.60;;;;;;5093063;28;20017;-80
2022/09/11 04:46:10;;;;;;;0.95;0.50;;;19.60;70.50;;;;;;5093200;28;20066;-75
2022/09/11 04:48:38;;;;;;;6.13;0.45;;;19.60;70.20;;;;;;5093160;28;20025;-76
2022/09/11 04:51:07;;;;;;;2.75;0.60;;;19.60;70.10;;;;;;5092630;28;20058;-76
2022/09/11 04:53:36;;;;;;;2.20;0.70;;;19.50;70.20;;;;;;5093110;28;20039;-78
2022/09/11 04:56:08;;;;;;;1.88;0.40;;;19.50;70.40;;;;;;5092775;28;20036;-76
2022/09/11 04:58:35;;;;;;;2.25;0.50;;;19.50;70.10;;;;;;5092656;28;20086;-79
2022/09/11 05:01:04;;;;;;;3.75;0.80;;;19.40;70.30;;;;;;5092721;28;20032;-80
2022/09/11 05:03:30;;;;;;;2.95;0.45;;;19.40;70.20;;;;;;5092804;28;20095;-79
2022/09/11 05:05:56;;;;;;;1.85;0.43;;;19.40;70.40;;;;;;5092796;28;20486;-79
2022/09/11 05:08:27;;;;;;;0.90;0.40;;;19.40;70.60;;;;;;5092750;28;20020;-76
2022/09/11 05:10:53;;;;;;;1.08;0.50;;;19.40;70.70;;;;;;5092850;28;20128;-79
2022/09/11 05:13:19;;;;;;;5.20;0.50;;;19.40;70.80;;;;;;5092452;28;20519;-77
2022/09/11 05:15:45;;;;;;;3.20;0.65;;;19.40;70.90;;;;;;5092869;28;20024;-78
2022/09/11 05:18:11;;;;;;;0.68;0.55;;;19.40;71.10;;;;;;5092556;28;20020;-78
2022/09/11 05:20:38;;;;;;;4.85;0.55;;;19.40;71.20;;;;;;5092567;28;20058;-76
2022/09/11 05:23:06;;;;;;;1.55;0.50;;;19.30;71.30;;;;;;5095284;28;20032;-76
2022/09/11 05:25:31;;;;;;;4.15;0.60;;;19.30;71.40;;;;;;5096617;28;20028;-76
2022/09/11 05:27:57;;;;;;;5.07;0.70;;;19.30;71.50;;;;;;5096800;28;20034;-76
2022/09/11 05:30:23;;;;;;;2.78;0.38;;;19.30;71.70;;;;;;5096363;28;20144;-76
2022/09/11 05:32:54;;;;;;;4.30;0.60;;;19.30;72.20;;;;;;5096177;28;20482;-75
2022/09/11 05:35:23;;;;;;;1.88;0.43;;;19.30;71.90;;;;;;5096245;28;20023;-79
2022/09/11 05:37:49;;;;;;;5.22;0.60;;;19.30;71.90;;;;;;5096607;28;20034;-76
2022/09/11 05:40:15;;;;;;;2.72;0.50;;;19.30;72.00;;;;;;5096116;28;20107;-75
2022/09/11 05:42:41;;;;;;;2.53;0.68;;;19.30;72.20;;;;;;5096130;28;20038;-79
2022/09/11 05:45:07;;;;;;;3.55;0.70;;;19.30;72.40;;;;;;5096358;28;20032;-80
2022/09/11 05:47:32;;;;;;;4.82;0.50;;;19.30;72.60;;;;;;5096081;28;20111;-76
2022/09/11 05:49:58;;;;;;;1.48;0.52;;;19.30;73.00;;;;;;5096032;28;20054;-77
2022/09/11 05:52:24;;;;;;;2.80;0.60;;;19.30;73.30;;;;;;5094306;28;20032;-77
2022/09/11 05:54:52;;;;;;;0.80;0.60;;;19.30;73.60;;;;;;5093690;28;20028;-79
2022/09/11 05:57:18;;;;;;;1.45;0.70;;;19.30;74.00;;;;;;5095958;28;20055;-76
2022/09/11 05:59:44;;;;;;;2.03;0.77;;;19.30;74.00;;;;;;5093915;28;20047;-76
2022/09/11 06:02:10;;;;;;;2.17;0.60;;;19.30;74.00;;;;;;5094081;28;20032;-79
2022/09/11 06:04:36;;;;;;;8.98;1.00;;;19.30;74.20;;;;;;5094259;28;20541;-76
2022/09/11 06:07:02;;;;;;;5.80;0.65;;;19.30;74.10;;;;;;5094940;28;20024;-76
2022/09/11 06:09:28;;;;;;;3.45;0.70;;;19.30;74.00;;;;;;5094223;28;20102;-76
2022/09/11 06:11:53;;;;;;;1.15;0.40;;;19.30;73.00;;;;;;5094135;28;20446;-79
2022/09/11 06:14:20;;;;;;;2.05;0.50;;;19.40;72.80;;;;;;5095128;28;20275;-77
2022/09/11 06:16:47;;;;;;;1.92;0.38;;;19.40;72.60;;;;;;5095153;28;20069;-79
2022/09/11 06:19:12;;;;;;;2.25;0.70;;;19.40;72.30;;;;;;5094896;28;20028;-79
2022/09/11 06:21:39;;;;;;;2.30;0.50;;;19.50;72.90;;;;;;5077012;28;20028;-83
2022/09/11 06:24:05;;;;;;;2.28;0.50;;;19.50;71.80;;;;;;5095474;28;20016;-82
2022/09/11 06:26:31;;;;;;;2.85;0.47;;;19.60;71.80;;;;;;5095348;28;20492;-81
2022/09/11 06:28:57;;;;;;;1.38;0.40;;;19.60;71.60;;;;;;5095172;28;20097;-79
2022/09/11 06:31:24;;;;;;;3.53;0.73;;;19.60;72.50;;;;;;5095019;28;20473;-79
2022/09/11 06:33:51;;;;;;;2.85;0.60;;;19.60;71.80;;;;;;5095007;28;20020;-83
2022/09/11 06:36:25;;;;;;;2.00;0.50;;;19.60;72.10;;;;;;5095567;28;20028;-78
2022/09/11 06:38:56;;;;;;;3.17;0.50;;;19.60;72.40;;;;;;5093158;28;20029;-78
2022/09/11 06:41:23;;;;;;;2.15;0.60;;;19.60;72.50;;;;;;5093182;28;20711;-78
2022/09/11 06:43:49;;;;;;;3.50;0.60;;;19.70;72.40;;;;;;5093126;28;20111;-78
2022/09/11 06:46:19;;;;;;;1.92;0.52;;;19.70;72.40;;;;;;5094329;28;20513;-78
2022/09/11 06:48:46;;;;;;;1.83;0.35;;;19.80;72.50;;;;;;5094548;28;20016;-79
2022/09/11 06:51:14;;;;;;;4.22;0.52;;;19.90;71.70;;;;;;5094665;28;20083;-78
2022/09/11 06:53:40;;;;;;;2.92;0.50;;;19.90;71.50;;;;;;5094817;28;20051;-79
2022/09/11 06:56:09;;;;;;;1.05;0.50;;;19.90;71.60;;;;;;5094693;28;20032;-81
2022/09/11 06:58:34;;;;;;;2.33;0.75;;;20.00;71.50;;;;;;5095141;28;20028;-82
2022/09/11 07:01:14;;;;;;;5.03;0.50;;;20.00;71.20;;;;;;5095008;28;20032;-82
2022/09/11 07:03:48;;;;;;;4.00;0.55;;;20.10;71.20;;;;;;5094913;28;20099;-77
2022/09/11 07:06:20;;;;;;;1.60;0.40;;;20.10;70.80;;;;;;5094934;28;20431;-78
2022/09/11 07:08:51;;;;;;;2.67;0.55;;;20.10;70.50;;;;;;5094882;28;20031;-83
2022/09/11 07:11:18;;;;;;;2.42;0.60;;;20.20;70.50;;;;;;5094710;28;20532;-77
2022/09/11 07:13:44;;;;;;;2.85;0.70;;;20.20;69.90;;;;;;5094588;28;20028;-78
2022/09/11 07:16:13;;;;;;;2.22;0.50;;;20.20;69.60;;;;;;5094910;28;20085;-84
2022/09/11 07:18:44;;;;;;;1.50;0.50;;;20.30;69.00;;;;;;5094813;28;20028;-78
2022/09/11 07:21:12;;;;;;;0.85;0.40;;;20.30;68.30;;;;;;5094228;28;20040;-83
2022/09/11 07:23:39;;;;;;;1.98;0.65;;;20.30;68.20;;;;;;5094445;28;20016;-78
2022/09/11 07:26:08;;;;;;;2.97;0.60;;;20.40;68.00;;;;;;5094204;28;20032;-78
2022/09/11 07:28:35;;;;;;;3.15;0.40;;;20.40;67.50;;;;;;5094238;28;20065;-81
2022/09/11 07:31:06;;;;;;;3.22;0.30;;;20.50;66.50;;;;;;5094953;28;20378;-82
2022/09/11 07:33:32;;;;;;;1.23;0.47;;;20.50;66.10;;;;;;5094437;28;20024;-85
2022/09/11 07:35:58;;;;;;;0.50;0.35;;;20.60;66.30;;;;;;5094401;28;20031;-85
2022/09/11 07:38:23;;;;;;;7.63;0.70;;;20.60;65.90;;;;;;5094217;28;20052;-82
2022/09/11 07:40:53;;;;;;;1.02;0.50;;;20.70;65.70;;;;;;5094179;28;20024;-83
2022/09/11 07:43:19;;;;;;;2.28;0.50;;;20.70;66.10;;;;;;5094168;28;20410;-78
2022/09/11 07:45:45;;;;;;;1.30;0.35;;;20.80;64.90;;;;;;5093419;28;20097;-78
2022/09/11 07:48:11;;;;;;;1.40;0.45;;;20.90;64.40;;;;;;5094199;28;20024;-82
2022/09/11 07:50:37;;;;;;;3.50;0.30;;;20.90;64.00;;;;;;5093916;28;20067;-81
2022/09/11 07:53:03;;;;;;;0.47;0.30;;;20.90;63.80;;;;;;5093779;28;20028;-79
2022/09/11 07:55:28;;;;;;;1.80;0.50;;;21.00;63.70;;;;;;5094050;28;20069;-79
2022/09/11 07:57:54;;;;;;;0.30;0.30;;;21.10;63.70;;;;;;5093957;28;20423;-81
2022/09/11 08:00:20;;;;;;;0.30;0.28;;;21.10;63.10;;;;;;5093745;28;20043;-79
2022/09/11 08:02:47;;;;;;;0.40;0.30;;;21.20;63.10;;;;;;5093931;28;20024;-81
2022/09/11 08:05:12;;;;;;;1.60;0.32;;;21.20;62.50;;;;;;5093743;28;20063;-81
2022/09/11 08:07:38;;;;;;;4.32;0.40;;;21.30;62.00;;;;;;5093557;28;20483;-78
2022/09/11 08:10:04;;;;;;;0.28;0.28;;;21.30;62.10;;;;;;5093698;28;20466;-81
2022/09/11 08:12:31;;;;;;;0.47;0.30;;;21.30;61.70;;;;;;5093659;28;20020;-78
2022/09/11 08:14:56;;;;;;;0.47;0.32;;;21.40;60.70;;;;;;5093499;28;20445;-80
2022/09/11 08:17:22;;;;;;;0.57;0.30;;;21.50;60.50;;;;;;5093477;28;20055;-78
2022/09/11 08:19:48;;;;;;;3.95;0.30;;;21.50;60.30;;;;;;5093321;28;20516;-77
2022/09/11 08:22:13;;;;;;;3.00;0.50;;;21.60;60.10;;;;;;5093531;28;20095;-81
2022/09/11 08:24:40;;;;;;;1.58;0.50;;;21.60;59.50;;;;;;5093691;28;20470;-82
2022/09/11 08:27:06;;;;;;;1.27;0.30;;;21.70;59.10;;;;;;5093504;28;20032;-77
2022/09/11 08:29:31;;;;;;;1.17;0.50;;;21.70;58.30;;;;;;5093327;28;20535;-82
2022/09/11 08:31:57;;;;;;;0.50;0.40;;;21.80;58.20;;;;;;5093361;28;20016;-79
2022/09/11 08:34:23;;;;;;;1.55;0.30;;;21.80;58.80;;;;;;5093297;28;20031;-79
2022/09/11 08:36:50;;;;;;;0.98;0.40;;;21.90;59.20;;;;;;5092924;28;20031;-82
2022/09/11 08:39:16;;;;;;;2.67;0.40;;;22.00;57.90;;;;;;5093120;28;20027;-78
2022/09/11 08:41:50;;;;;;;0.38;0.30;;;22.00;57.60;;;;;;5093109;28;20497;-81
2022/09/11 08:44:54;;;;;;;0.57;0.30;;;22.10;58.50;;;;;;5093048;28;20024;-79
2022/09/11 08:47:34;;;;;;;0.65;0.30;;;22.20;58.80;;;;;;5075461;28;20040;-81
2022/09/11 08:50:05;;;;;;;0.70;0.40;;;22.20;58.20;;;;;;5093023;28;20202;-80
2022/09/11 08:52:33;;;;;;;0.50;0.40;;;22.30;58.00;;;;;;5093062;28;20034;-80
2022/09/11 08:54:59;;;;;;;1.10;0.40;;;22.30;57.90;;;;;;5093018;28;20020;-78
2022/09/11 08:57:39;;;;;;;0.50;0.30;;;22.40;57.70;;;;;;5096929;28;20016;-80
2022/09/11 09:00:20;;;;;;;1.10;0.30;;;22.50;57.70;;;;;;5097784;28;20060;-78
2022/09/11 09:03:23;;;;;;;1.85;0.40;;;22.60;55.20;;;;;;5097535;28;20034;-80
2022/09/11 09:06:15;;;;;;;0.73;0.30;;;22.50;55.20;;;;;;5096955;28;20030;-79
2022/09/11 09:08:51;;;;;;;;;;;22.60;55.80;;;;;;5097577;28;20056;-79
2022/09/11 09:11:40;;;;;;;0.25;0.20;;;22.70;55.80;;;;;;5097321;28;19904;-79
2022/09/11 09:14:21;;;;;;;0.60;0.50;;;22.70;56.80;;;;;;5096962;28;20378;-78
2022/09/11 09:16:58;;;;;;;0.40;0.40;;;22.80;56.50;;;;;;5096822;28;20020;-78
2022/09/11 09:19:44;;;;;;;2.30;0.50;;;22.90;56.70;;;;;;5096733;28;20020;-78
2022/09/11 09:22:32;;;;;;;0.52;0.30;;;22.90;55.30;;;;;;5078624;28;20032;-80
2022/09/11 09:25:04;;;;;;;1.42;0.40;;;23.00;55.20;;;;;;5096684;28;20558;-79
2022/09/11 09:27:48;;;;;;;0.70;0.45;;;23.10;54.70;;;;;;5096870;28;20024;-81
2022/09/11 09:30:17;;;;;;;2.25;0.32;;;23.10;54.70;;;;;;5096790;28;20024;-79
2022/09/11 09:32:51;;;;;;;1.10;0.50;;;23.10;54.50;;;;;;5096596;28;20019;-78
2022/09/11 09:35:38;;;;;;;0.43;0.40;;;23.20;54.70;;;;;;5096565;28;20020;-79
2022/09/11 09:38:17;;;;;;;0.30;0.30;;;23.30;54.90;;;;;;5096583;28;20024;-80
2022/09/11 09:41:09;;;;;;;0.30;0.30;;;23.40;54.10;;;;;;5096343;28;20032;-80
2022/09/11 09:43:59;;;;;;;1.08;0.43;;;23.40;53.60;;;;;;5096307;28;20077;-78
2022/09/11 09:46:31;;;;;;;0.35;0.20;;;23.50;53.80;;;;;;5096340;28;20389;-79
2022/09/11 09:48:57;;;;;;;0.70;0.38;;;23.60;53.20;;;;;;5096215;28;20027;-79
2022/09/11 09:51:22;;;;;;;0.80;0.30;;;23.60;52.70;;;;;;5096349;28;20024;-79
2022/09/11 09:53:55;;;;;;;0.77;0.47;;;23.60;53.10;;;;;;5096282;28;20020;-79
2022/09/11 09:56:22;;;;;;;1.35;0.43;;;23.70;52.80;;;;;;5096468;28;20039;-80
2022/09/11 09:59:01;;;;;;;1.20;0.30;;;23.80;52.80;;;;;;5096081;28;20540;-81
2022/09/11 10:01:52;;;;;;;1.38;0.50;;;23.80;52.20;;;;;;5096416;28;20131;-80
2022/09/11 10:04:24;;;;;;;3.60;0.40;;;23.90;52.00;;;;;;5077985;28;20420;-80
2022/09/11 10:06:53;;;;;;;0.90;0.30;;;23.90;51.10;;;;;;5096171;28;20032;-80
2022/09/11 10:09:29;;;;;;;0.40;0.20;;;24.00;51.30;;;;;;5095469;28;20036;-79
2022/09/11 10:12:01;;;;;;;1.48;0.30;;;24.00;51.80;;;;;;5096092;28;20531;-79
2022/09/11 10:14:31;;;;;;;0.38;0.30;;;24.10;51.70;;;;;;5095945;28;20031;-79
2022/09/11 10:16:59;;;;;;;0.88;0.32;;;24.10;51.30;;;;;;5096023;28;20034;-81
2022/09/11 10:19:38;;;;;;;1.05;0.30;;;24.20;51.60;;;;;;5095798;28;20020;-78
2022/09/11 10:22:28;;;;;;;1.75;0.28;;;24.20;50.20;;;;;;5096089;28;20032;-81
2022/09/11 10:25:01;;;;;;;0.30;0.30;;;24.30;50.60;;;;;;5095550;28;20448;-79
2022/09/11 10:27:30;;;;;;;1.17;0.30;;;24.30;52.10;;;;;;5095647;28;20097;-80
2022/09/11 10:29:57;;;;;;;3.88;1.15;;;24.40;50.20;;;;;;5095757;28;20025;-79
2022/09/11 10:32:24;;;;;;;0.47;0.35;;;24.40;49.30;;;;;;5095462;28;20351;-78
2022/09/11 10:34:51;;;;;;;0.50;0.50;;;24.40;48.20;;;;;;5095503;28;20028;-80
2022/09/11 10:37:30;;;;;;;0.80;0.30;;;24.50;48.10;;;;;;5095347;28;20527;-79
2022/09/11 10:40:07;;;;;;;0.77;0.30;;;24.50;48.90;;;;;;5095427;28;20082;-80
2022/09/11 10:42:34;;;;;;;0.50;0.30;;;24.60;48.00;;;;;;5095607;28;20052;-80
2022/09/11 10:45:15;;;;;;;0.30;0.30;;;24.70;47.90;;;;;;5095235;28;20086;-80
2022/09/11 10:47:42;;;;;;;0.70;0.20;;;24.70;48.30;;;;;;5095179;28;20047;-80
2022/09/11 10:50:17;;;;;;;0.70;0.30;;;24.70;48.00;;;;;;5095001;28;20571;-80
2022/09/11 10:53:21;;;;;;;0.15;0.15;;;24.80;47.20;;;;;;5095149;28;20058;-79
2022/09/11 10:55:57;;;;;;;1.30;0.30;;;24.80;47.00;;;;;;5054376;28;20040;-79
2022/09/11 10:58:37;;;;;;;0.55;0.30;;;24.80;47.90;;;;;;5093251;28;20025;-79
2022/09/11 11:01:03;;;;;;;0.55;0.25;;;24.80;47.50;;;;;;5074230;28;20040;-79
2022/09/11 11:03:29;;;;;;;0.77;0.40;;;24.90;46.90;;;;;;5095131;28;20482;-80
2022/09/11 11:06:18;;;;;;;0.73;0.20;;;24.90;46.40;;;;;;5095069;28;20030;-78
2022/09/11 11:08:59;;;;;;;0.38;0.20;;;24.90;47.60;;;;;;5094849;28;20377;-80
2022/09/11 11:12:02;;;;;;;1.75;0.28;;;25.00;48.40;;;;;;5095012;28;20350;-82
2022/09/11 11:14:31;;;;;;;2.47;0.40;;;25.00;48.10;;;;;;5094258;28;20028;-79
2022/09/11 11:17:27;;;;;;;0.60;0.30;;;25.10;47.20;;;;;;5076687;28;20371;-79
2022/09/11 11:20:20;;;;;;;1.65;0.25;;;25.10;47.10;;;;;;5093780;28;20448;-81
2022/09/11 11:23:12;;;;;;;1.55;0.28;;;25.20;47.10;;;;;;5093367;28;20078;-79
2022/09/11 11:26:08;;;;;;;0.22;0.22;;;25.20;46.90;;;;;;5053506;28;20036;-79
2022/09/11 11:29:01;;;;;;;0.88;0.50;;;25.20;46.60;;;;;;5091813;28;20036;-80
2022/09/11 11:31:41;;;;;;;0.50;0.30;;;25.30;45.80;;;;;;5094001;28;20017;-81
2022/09/11 11:34:32;;;;;;;0.35;0.30;;;25.30;45.60;;;;;;5094093;28;20051;-79
2022/09/11 11:37:09;;;;;;;1.30;0.20;;;25.30;45.30;;;;;;5094133;28;20031;-80
2022/09/11 11:40:17;;;;;;;0.25;0.20;;;25.40;45.70;;;;;;5075743;28;20024;-78
2022/09/11 11:43:02;;;;;;;0.77;0.40;;;25.40;44.50;;;;;;5083064;28;20505;-78
2022/09/11 11:45:47;;;;;;;2.97;0.13;;;25.40;45.80;;;;;;5093829;28;20035;-79
2022/09/11 11:48:33;;;;;;;0.45;0.20;;;25.40;43.80;;;;;;5093965;28;20028;-78
2022/09/11 11:51:05;;;;;;;3.60;0.28;;;25.40;44.50;;;;;;5092977;28;20059;-81
2022/09/11 11:53:54;;;;;;;1.10;0.40;;;25.40;45.70;;;;;;5093408;28;20039;-81
2022/09/11 11:56:45;;;;;;;0.68;0.28;;;25.40;45.60;;;;;;5052338;28;20111;-79
2022/09/11 11:59:35;;;;;;;1.23;0.23;;;25.50;46.00;;;;;;5084300;28;20032;-79
2022/09/11 12:02:12;;;;;;;0.68;0.30;;;25.50;45.60;;;;;;5093661;28;20078;-78
2022/09/11 12:04:44;;;;;;;0.63;0.25;;;25.60;45.10;;;;;;5093742;28;20496;-79
2022/09/11 12:07:17;;;;;;;0.25;0.20;;;25.60;44.70;;;;;;5093567;28;20099;-78
2022/09/11 12:09:48;;;;;;;1.88;0.40;;;25.60;45.00;;;;;;5093712;28;20028;-81
2022/09/11 12:12:16;;;;;;;0.28;0.22;;;25.60;45.50;;;;;;5093799;28;20028;-81
2022/09/11 12:14:53;;;;;;;0.38;0.28;;;25.60;45.90;;;;;;5093784;28;20020;-82
2022/09/11 12:17:28;;;;;;;0.30;0.20;;;25.70;46.70;;;;;;5093997;28;20020;-83
2022/09/11 12:20:09;;;;;;;2.83;0.30;;;25.70;45.10;;;;;;5093356;28;20516;-81
2022/09/11 12:22:47;;;;;;;0.90;0.30;;;25.70;45.40;;;;;;5092606;28;20032;-79
2022/09/11 12:25:19;;;;;;;2.42;0.22;;;25.70;44.40;;;;;;5090992;28;20035;-80
2022/09/11 12:27:45;;;;;;;1.20;0.25;;;25.80;44.70;;;;;;5091025;28;20428;-81
2022/09/11 12:30:16;;;;;;;1.77;0.30;;;25.80;44.70;;;;;;5092767;28;20023;-79
2022/09/11 12:32:50;;;;;;;2.38;0.20;;;25.80;45.70;;;;;;5093355;28;20055;-78
2022/09/11 12:35:22;;;;;;;0.85;0.40;;;25.80;45.90;;;;;;5093530;28;20412;-81
2022/09/11 12:38:07;;;;;;;0.52;0.20;;;25.80;45.20;;;;;;5093444;28;20381;-79
2022/09/11 12:41:00;;;;;;;0.75;0.28;;;25.90;46.80;;;;;;5052039;28;20052;-81
2022/09/11 12:43:36;;;;;;;3.47;0.30;;;25.90;46.20;;;;;;5093280;28;20022;-79
2022/09/11 12:46:10;;;;;;;0.60;0.30;;;25.90;45.50;;;;;;5093282;28;20024;-82
2022/09/11 12:48:43;;;;;;;0.70;0.30;;;25.90;46.30;;;;;;5091028;28;20047;-79
2022/09/11 12:51:25;;;;;;;1.15;0.22;;;25.90;48.50;;;;;;5089920;28;20048;-79
2022/09/11 12:54:11;;;;;;;1.27;0.20;;;25.90;47.40;;;;;;5090318;28;20048;-79
2022/09/11 12:56:49;;;;;;;0.95;0.30;;;26.00;47.70;;;;;;5092650;28;20021;-79
2022/09/11 12:59:40;;;;;;;1.25;0.28;;;26.00;48.10;;;;;;5092732;28;20020;-78
2022/09/11 13:02:42;;;;;;;3.22;0.40;;;26.00;47.00;;;;;;5092844;28;20017;-79
2022/09/11 13:05:39;;;;;;;1.33;0.30;;;26.00;47.20;;;;;;5079727;28;20039;-78
2022/09/11 13:08:17;;;;;;;0.50;0.32;;;26.00;48.50;;;;;;5076678;28;20418;-79
2022/09/11 13:10:45;;;;;;;0.73;0.30;;;26.00;47.80;;;;;;5092595;28;20121;-78
2022/09/11 13:13:43;;;;;;;0.22;0.20;;;26.10;47.80;;;;;;5092820;28;20020;-78
2022/09/11 13:16:21;;;;;;;3.30;0.55;;;26.10;47.50;;;;;;5076793;28;20032;-79
2022/09/11 13:18:47;;;;;;;0.43;0.20;;;26.10;48.20;;;;;;5092432;28;20028;-78